WEATHER DATA

TODAY
Time Temp. Dewp. Hum. Bar. 1h Prec. 24h Prec.
00:08 15.7 12.3 80 1016.1 0.0000 0.0000
00:18 15.7 12.3 80 1016 0.0000 0.0000
00:27 15.7 12.3 80 1016 0.0000 0.0000
00:38 15.6 12.2 80 1016.1 0.0000 0.0000
00:48 15.6 12.2 80 1016 0.0000 0.0000
00:58 15.4 12 80 1016 0.0000 0.0000
01:08 15.3 12.1 81 1016 0.0000 0.0000
01:18 15.2 12 81 1016.1 0.0000 0.0000
01:28 15 12 82 1016.2 0.0000 0.0000
01:38 14.9 11.9 82 1016.1 0.0000 0.0000
01:48 14.8 11.9 83 1016.1 0.0000 0.0000
01:58 14.8 11.9 83 1016 0.0000 0.0000
02:08 14.8 11.9 83 1015.9 0.0000 0.0000
02:18 14.8 11.9 83 1015.9 0.0000 0.0000
02:29 14.8 11.9 83 1015.9 0.0000 0.0000
02:38 14.9 12 83 1015.8 0.0000 0.0000
02:48 14.8 11.9 83 1015.9 0.0000 0.0000
02:59 14.8 11.9 83 1015.8 0.0000 0.0000
03:09 14.8 11.9 83 1015.9 0.0000 0.0000
03:18 14.8 11.9 83 1015.9 0.0000 0.0000
03:28 14.7 11.8 83 1015.7 0.0000 0.0000
03:39 14.6 11.6 82 1015.9 0.0000 0.0000
03:49 14.5 11.5 82 1015.9 0.0000 0.0000
03:59 14.4 11.4 82 1015.9 0.0000 0.0000
04:09 14.3 11.3 82 1015.7 0.0000 0.0000
04:19 14.2 11.4 83 1015.7 0.0000 0.0000
04:29 14.2 11.4 83 1015.7 0.0000 0.0000
04:39 14.2 11.4 83 1015.7 0.0000 0.0000
04:49 14.1 11.3 83 1015.8 0.0000 0.0000
04:59 14.1 11.4 84 1015.8 0.0000 0.0000
05:09 14.1 11.4 84 1015.8 0.0000 0.0000
05:20 14.1 11.4 84 1015.9 0.0000 0.0000
05:30 14 11.3 84 1015.9 0.0000 0.0000
05:39 14 11.3 84 1016 0.0000 0.0000
05:49 14 11.3 84 1016 0.0000 0.0000
06:00 14 11.3 84 1016.2 0.0000 0.0000
06:10 14 11.5 85 1016.2 0.0000 0.0000
06:19 14 11.5 85 1016.2 0.0000 0.0000
06:30 14 11.5 85 1016.3 0.0000 0.0000
06:40 14 11.5 85 1016.4 0.0000 0.0000
06:50 14.1 11.6 85 1016.5 0.0000 0.0000
07:00 14.1 11.6 85 1016.4 0.0000 0.0000
07:10 14.1 11.8 86 1016.3 0.0000 0.0000
07:20 14.2 11.9 86 1016.5 0.0000 0.0000
07:30 14.3 12 86 1016.4 0.0000 0.0000
07:41 14.4 12.1 86 1016.5 0.0000 0.0000
07:50 14.6 12.5 87 1016.5 0.0000 0.0000
08:00 14.8 12.7 87 1016.7 0.0000 0.0000
08:10 15 12.9 87 1016.8 0.0000 0.0000
08:21 15.3 13 86 1016.8 0.0000 0.0000
08:30 15.5 13.2 86 1016.9 0.0000 0.0000
08:40 15.6 13.1 85 1016.9 0.0000 0.0000
08:51 15.8 13.3 85 1017 0.0000 0.0000
09:01 15.9 13.4 85 1017.1 0.0000 0.0000
09:11 16 13.5 85 1017.1 0.0000 0.0000
09:20 16.1 13.4 84 1017.1 0.0000 0.0000
09:31 16.2 13.5 84 1017.3 0.0000 0.0000
09:41 16.4 13.7 84 1017.2 0.0000 0.0000
09:51 16.6 13.9 84 1017.4 0.0000 0.0000
10:01 16.8 13.9 83 1017.3 0.0000 0.0000
10:11 17 14.1 83 1017.3 0.0000 0.0000
10:21 17.1 14.2 83 1017.3 0.0000 0.0000

DAY STATISTIC

2021-08-02
TEMPERATURE
AVERAGE
14.9
HIGH
17.1
10:21
LOW
14.0
05:30
PRESSURE
AVERAGE
1016.3
HIGH
1017.4
09:51
LOW
1015.7
03:28
DEWPOINT
AVERAGE
12.2
HIGH
14.2
10:21
LOW
11.3
04:09
HUMIDITY
AVERAGE
84
HIGH
87
07:50
LOW
80
00:08
PRECIPITATION
RAIN HOUR
0.0
RAIN DAY
0.0
TEMPERATURE (°C)
LOW
14.0
HIGH
17.1
AVERAGE
14.9
PRESSURE (hpa)
LOW
1015.7
HIGH
1017.4
AVERAGE
1016.3
DEVICE